createdAt,value
2022-12-29T00:00:20.348Z,10.90
2022-12-29T00:02:47.970Z,10.90
2022-12-29T00:05:15.182Z,10.90
2022-12-29T00:07:42.168Z,10.90
2022-12-29T00:10:09.178Z,10.90
2022-12-29T00:13:08.707Z,10.90
2022-12-29T00:15:40.686Z,10.90
2022-12-29T00:18:09.141Z,10.90
2022-12-29T00:20:56.380Z,10.90
2022-12-29T00:23:41.729Z,10.90
2022-12-29T00:26:38.736Z,10.90
2022-12-29T00:29:24.381Z,10.90
2022-12-29T00:32:20.608Z,10.90
2022-12-29T00:35:06.267Z,11.00
2022-12-29T00:37:51.900Z,10.90
2022-12-29T00:40:37.381Z,10.90
2022-12-29T00:43:22.732Z,10.90
2022-12-29T00:45:49.684Z,11.00
2022-12-29T00:48:16.530Z,11.00
2022-12-29T00:50:43.709Z,10.90
2022-12-29T00:53:10.528Z,10.90
2022-12-29T00:55:39.025Z,10.80
2022-12-29T00:58:05.907Z,10.80
2022-12-29T01:00:34.387Z,10.80
2022-12-29T01:03:01.492Z,10.80
2022-12-29T01:05:28.537Z,10.80
2022-12-29T01:07:55.471Z,10.80
2022-12-29T01:10:22.371Z,10.80
2022-12-29T01:12:50.792Z,10.80
2022-12-29T01:15:17.723Z,10.70
2022-12-29T01:17:45.321Z,10.80
2022-12-29T01:20:12.831Z,10.70
2022-12-29T01:22:40.547Z,10.70
2022-12-29T01:25:08.130Z,10.70
2022-12-29T01:27:35.122Z,10.70
2022-12-29T01:30:02.138Z,10.70
2022-12-29T01:32:29.008Z,10.70
2022-12-29T01:34:55.905Z,10.70
2022-12-29T01:37:22.964Z,10.70
2022-12-29T01:39:49.846Z,10.70
2022-12-29T01:42:23.628Z,10.70
2022-12-29T01:44:53.307Z,10.70
2022-12-29T01:47:27.981Z,10.70
2022-12-29T01:49:57.720Z,10.70
2022-12-29T01:52:28.053Z,10.80
2022-12-29T01:54:57.074Z,10.80
2022-12-29T01:57:30.494Z,10.80
2022-12-29T02:00:05.467Z,10.90
2022-12-29T02:02:33.732Z,10.90
2022-12-29T02:05:06.450Z,10.90
2022-12-29T02:07:34.768Z,10.80
2022-12-29T02:10:02.820Z,10.80
2022-12-29T02:12:29.690Z,10.80
2022-12-29T02:15:01.476Z,10.80
2022-12-29T02:17:47.205Z,10.80
2022-12-29T02:20:48.842Z,10.80
2022-12-29T02:23:50.493Z,10.80
2022-12-29T02:27:02.794Z,10.80
2022-12-29T02:29:29.888Z,10.70
2022-12-29T02:32:09.165Z,10.60
2022-12-29T02:35:07.976Z,10.70
2022-12-29T02:37:52.899Z,10.70
2022-12-29T02:40:31.455Z,10.70
2022-12-29T02:43:07.206Z,10.80
2022-12-29T02:45:49.257Z,10.90
2022-12-29T02:48:24.890Z,10.90
2022-12-29T02:51:01.459Z,10.90
2022-12-29T02:53:55.929Z,10.90
2022-12-29T02:56:23.143Z,10.90
2022-12-29T02:58:50.101Z,10.90
2022-12-29T03:01:36.866Z,11.00
2022-12-29T03:04:12.771Z,11.00
2022-12-29T03:07:05.994Z,11.00
2022-12-29T03:10:20.819Z,11.00
2022-12-29T03:13:25.366Z,11.00
2022-12-29T03:16:06.391Z,11.10
2022-12-29T03:18:34.257Z,11.10
2022-12-29T03:21:20.712Z,11.10
2022-12-29T03:23:51.020Z,11.10
2022-12-29T03:26:20.937Z,11.20
2022-12-29T03:28:53.777Z,11.20
2022-12-29T03:31:24.279Z,11.20
2022-12-29T03:33:52.691Z,11.20
2022-12-29T03:36:31.850Z,11.20
2022-12-29T03:39:10.335Z,11.30
2022-12-29T03:41:38.199Z,11.40
2022-12-29T03:44:08.041Z,11.50
2022-12-29T03:46:35.248Z,11.60
2022-12-29T03:49:02.316Z,11.50
2022-12-29T03:51:29.179Z,11.50
2022-12-29T03:53:56.148Z,11.50
2022-12-29T03:56:23.115Z,11.50
2022-12-29T03:58:50.062Z,11.60
2022-12-29T04:01:17.260Z,11.60
2022-12-29T04:03:45.343Z,11.60
2022-12-29T04:06:12.289Z,11.60
2022-12-29T04:08:39.226Z,11.60
2022-12-29T04:11:06.630Z,11.60
2022-12-29T04:13:34.534Z,11.60
2022-12-29T04:16:01.393Z,11.60
2022-12-29T04:18:28.250Z,11.60
2022-12-29T04:21:01.408Z,11.60
2022-12-29T04:23:30.662Z,11.60
2022-12-29T04:25:57.538Z,11.70
2022-12-29T04:28:24.924Z,11.60
2022-12-29T04:30:52.723Z,11.60
2022-12-29T04:33:20.486Z,11.70
2022-12-29T04:35:49.463Z,11.70
2022-12-29T04:38:16.938Z,11.70
2022-12-29T04:40:45.718Z,11.70
2022-12-29T04:43:13.313Z,11.70
2022-12-29T04:45:44.639Z,11.70
2022-12-29T04:48:12.694Z,11.60
2022-12-29T04:50:42.161Z,11.50
2022-12-29T04:53:09.859Z,11.50
2022-12-29T04:55:40.388Z,11.40
2022-12-29T04:58:07.603Z,11.30
2022-12-29T05:00:35.223Z,11.30
2022-12-29T05:03:02.424Z,11.30
2022-12-29T05:05:29.424Z,11.30
2022-12-29T05:07:56.982Z,11.20
2022-12-29T05:10:25.871Z,11.10
2022-12-29T05:12:52.906Z,11.00
2022-12-29T05:15:20.164Z,11.00
2022-12-29T05:17:47.286Z,11.00
2022-12-29T05:20:14.380Z,11.00
2022-12-29T05:22:41.896Z,11.00
2022-12-29T05:25:12.299Z,11.00
2022-12-29T05:27:39.211Z,11.00
2022-12-29T05:30:06.569Z,11.10
2022-12-29T05:32:34.742Z,11.00
2022-12-29T05:35:01.895Z,11.10
2022-12-29T05:37:28.867Z,11.10
2022-12-29T05:39:55.932Z,11.10
2022-12-29T05:42:22.852Z,11.10
2022-12-29T05:44:53.267Z,11.10
2022-12-29T05:47:20.368Z,11.20
2022-12-29T05:49:47.384Z,11.30
2022-12-29T05:52:16.618Z,11.30
2022-12-29T05:54:45.316Z,11.40
2022-12-29T05:57:12.311Z,11.50
2022-12-29T05:59:39.192Z,11.50
2022-12-29T06:02:06.563Z,11.50
2022-12-29T06:04:35.079Z,11.60
2022-12-29T06:07:05.821Z,11.50
2022-12-29T06:09:32.624Z,11.60
2022-12-29T06:12:00.142Z,11.60
2022-12-29T06:14:27.227Z,11.70
2022-12-29T06:16:54.102Z,11.70
2022-12-29T06:19:22.750Z,11.70
2022-12-29T06:21:54.511Z,11.70
2022-12-29T06:24:22.156Z,11.70
2022-12-29T06:26:49.701Z,11.70
2022-12-29T06:29:20.222Z,11.70
2022-12-29T06:31:47.656Z,11.70
2022-12-29T06:34:14.934Z,11.60
2022-12-29T06:36:42.003Z,11.60
2022-12-29T06:39:09.179Z,11.60
2022-12-29T06:41:39.053Z,11.50
2022-12-29T06:44:07.712Z,11.50
2022-12-29T06:46:37.934Z,11.60
2022-12-29T06:49:04.891Z,11.60
2022-12-29T06:51:32.114Z,11.50
2022-12-29T06:53:59.190Z,11.50
2022-12-29T06:56:27.925Z,11.50
2022-12-29T06:58:57.672Z,11.50
2022-12-29T07:01:24.889Z,11.50
2022-12-29T07:03:51.899Z,11.60
2022-12-29T07:06:19.128Z,11.60
2022-12-29T07:08:46.786Z,11.70
2022-12-29T07:11:17.613Z,11.80
2022-12-29T07:13:44.697Z,11.70
2022-12-29T07:16:12.124Z,11.70
2022-12-29T07:18:39.412Z,11.70
2022-12-29T07:21:12.536Z,11.80
2022-12-29T07:23:39.818Z,11.80
2022-12-29T07:26:09.543Z,11.80
2022-12-29T07:28:40.514Z,11.90
2022-12-29T07:31:13.924Z,11.90
2022-12-29T07:33:41.430Z,11.90
2022-12-29T07:36:17.962Z,11.80
2022-12-29T07:38:52.936Z,11.80
2022-12-29T07:41:20.000Z,11.80
2022-12-29T07:43:50.217Z,11.80
2022-12-29T07:46:54.999Z,11.70
2022-12-29T07:49:05.673Z,11.70
2022-12-29T07:51:33.246Z,11.70
2022-12-29T07:54:03.439Z,11.60
2022-12-29T07:56:33.668Z,11.60
2022-12-29T07:59:01.543Z,11.60
2022-12-29T08:01:28.668Z,11.50
2022-12-29T08:03:57.547Z,11.40
2022-12-29T08:06:27.492Z,11.40
2022-12-29T08:08:54.436Z,11.40
2022-12-29T08:11:23.510Z,11.40
2022-12-29T08:13:50.639Z,11.40
2022-12-29T08:16:17.670Z,11.40
2022-12-29T08:18:45.515Z,11.40
2022-12-29T08:21:12.811Z,11.40
2022-12-29T08:23:40.000Z,11.30
2022-12-29T08:26:07.526Z,11.40
2022-12-29T08:28:34.945Z,11.40
2022-12-29T08:31:03.426Z,11.40
2022-12-29T08:33:30.990Z,11.40
2022-12-29T08:36:05.539Z,11.40
2022-12-29T08:38:32.874Z,11.50
2022-12-29T08:41:02.037Z,11.40
2022-12-29T08:43:30.828Z,11.40
2022-12-29T08:46:00.500Z,11.30
2022-12-29T08:48:28.086Z,11.10
2022-12-29T08:50:55.112Z,11.00
2022-12-29T08:53:22.256Z,10.90
2022-12-29T08:56:04.520Z,10.90
2022-12-29T09:10:52.773Z,10.70
2022-12-29T09:13:20.622Z,10.60
2022-12-29T09:15:47.622Z,10.60
2022-12-29T09:18:20.296Z,10.60
2022-12-29T09:20:49.344Z,10.50
2022-12-29T09:23:20.888Z,10.50
2022-12-29T09:25:48.901Z,10.50
2022-12-29T09:28:16.763Z,10.40
2022-12-29T09:30:49.671Z,10.40
2022-12-29T09:33:17.155Z,10.40
2022-12-29T09:35:50.336Z,10.30
2022-12-29T09:38:18.036Z,10.30
2022-12-29T09:40:54.194Z,10.20
2022-12-29T09:43:49.258Z,10.20
2022-12-29T09:46:24.584Z,10.20
2022-12-29T09:49:23.620Z,10.20
2022-12-29T09:51:54.995Z,10.20
2022-12-29T09:54:33.146Z,10.30
2022-12-29T09:57:00.666Z,10.30
2022-12-29T09:59:42.185Z,10.30
2022-12-29T10:02:32.510Z,10.20
2022-12-29T10:05:00.154Z,10.20
2022-12-29T10:07:37.655Z,10.20
2022-12-29T10:10:34.803Z,10.20
2022-12-29T10:13:16.133Z,10.20
2022-12-29T10:15:59.333Z,10.20
2022-12-29T10:18:45.230Z,10.30
2022-12-29T10:21:31.296Z,10.30
2022-12-29T10:24:00.599Z,10.20
2022-12-29T10:26:32.700Z,10.30
2022-12-29T10:29:07.815Z,10.30
2022-12-29T10:31:43.941Z,10.20
2022-12-29T10:34:39.262Z,10.30
2022-12-29T10:37:26.435Z,10.30
2022-12-29T10:39:56.934Z,10.40
2022-12-29T10:42:38.407Z,10.50
2022-12-29T10:45:06.552Z,10.60
2022-12-29T10:47:38.480Z,10.60
2022-12-29T10:50:06.583Z,10.70
2022-12-29T10:52:36.109Z,10.90
2022-12-29T10:55:18.201Z,11.10
2022-12-29T10:57:46.932Z,11.30
2022-12-29T11:00:17.669Z,11.50
2022-12-29T11:03:12.573Z,11.70
2022-12-29T11:05:46.319Z,11.90
2022-12-29T11:08:24.455Z,11.80
2022-12-29T11:11:07.500Z,11.80
2022-12-29T11:13:56.770Z,11.80
2022-12-29T11:16:32.452Z,11.80
2022-12-29T11:19:00.046Z,11.90
2022-12-29T11:21:43.295Z,11.90
2022-12-29T11:24:23.337Z,12.00
2022-12-29T11:26:53.917Z,12.10
2022-12-29T11:29:38.325Z,12.10
2022-12-29T11:32:28.177Z,12.20
2022-12-29T11:34:56.846Z,12.40
2022-12-29T11:37:32.382Z,12.40
2022-12-29T11:40:00.829Z,12.40
2022-12-29T11:42:59.718Z,12.30
2022-12-29T11:45:36.033Z,12.30
2022-12-29T11:48:10.366Z,12.20
2022-12-29T11:50:42.673Z,12.10
2022-12-29T11:53:15.920Z,12.10
2022-12-29T11:55:57.193Z,12.00
2022-12-29T11:58:36.161Z,12.10
2022-12-29T12:01:12.492Z,12.00
2022-12-29T12:03:49.725Z,12.00
2022-12-29T12:06:22.098Z,12.00
2022-12-29T12:08:55.572Z,12.10
2022-12-29T12:11:41.999Z,12.10
2022-12-29T12:14:34.074Z,12.10
2022-12-29T12:17:13.722Z,12.00
2022-12-29T12:20:17.697Z,12.00
2022-12-29T12:23:02.743Z,11.90
2022-12-29T12:25:39.454Z,11.90
2022-12-29T12:28:20.122Z,11.80
2022-12-29T12:30:51.419Z,11.80
2022-12-29T12:33:32.630Z,11.80
2022-12-29T12:36:36.693Z,11.70
2022-12-29T12:39:19.232Z,11.70
2022-12-29T12:42:14.777Z,11.60
2022-12-29T12:45:27.099Z,11.60
2022-12-29T12:48:16.797Z,11.60
2022-12-29T12:50:52.670Z,11.70
2022-12-29T12:53:59.890Z,11.80
2022-12-29T12:56:35.265Z,11.90
2022-12-29T12:59:37.543Z,11.90
2022-12-29T13:02:15.202Z,11.90
2022-12-29T13:05:05.700Z,12.00
2022-12-29T13:07:51.968Z,12.00
2022-12-29T13:10:29.876Z,12.00
2022-12-29T13:13:27.815Z,12.00
2022-12-29T13:16:23.719Z,12.00
2022-12-29T13:19:12.100Z,12.00
2022-12-29T13:22:03.853Z,12.00
2022-12-29T13:24:57.143Z,12.10
2022-12-29T13:27:39.118Z,12.10
2022-12-29T13:30:10.460Z,12.00
2022-12-29T13:33:14.997Z,12.00
2022-12-29T13:36:02.331Z,11.90
2022-12-29T13:38:46.348Z,11.90
2022-12-29T13:41:24.286Z,11.90
2022-12-29T13:43:52.589Z,11.90
2022-12-29T13:46:26.017Z,11.90
2022-12-29T13:48:57.964Z,11.90
2022-12-29T13:51:28.442Z,11.90
2022-12-29T13:54:04.362Z,11.90
2022-12-29T13:56:46.956Z,11.90
2022-12-29T13:59:26.215Z,11.90
2022-12-29T14:02:33.090Z,11.90
2022-12-29T14:05:07.047Z,11.80
2022-12-29T14:07:40.810Z,11.90
2022-12-29T14:10:26.558Z,11.80
2022-12-29T14:13:03.347Z,11.70
2022-12-29T14:15:30.539Z,11.70
2022-12-29T14:18:12.878Z,11.70
2022-12-29T14:20:51.857Z,11.70
2022-12-29T14:23:38.188Z,11.70
2022-12-29T14:26:07.915Z,11.60
2022-12-29T14:28:43.948Z,11.60
2022-12-29T14:31:19.629Z,11.60
2022-12-29T14:34:18.786Z,11.60
2022-12-29T14:37:00.917Z,11.60
2022-12-29T14:39:45.977Z,11.60
2022-12-29T14:42:20.120Z,11.60
2022-12-29T14:44:51.500Z,11.60
2022-12-29T14:47:42.249Z,11.60
2022-12-29T14:50:16.227Z,11.60
2022-12-29T14:53:04.124Z,11.60
2022-12-29T14:55:44.049Z,11.50
2022-12-29T14:58:30.890Z,11.50
2022-12-29T15:00:59.065Z,11.40
2022-12-29T15:03:51.383Z,11.40
2022-12-29T15:06:23.140Z,11.30
2022-12-29T15:08:57.143Z,11.30
2022-12-29T15:11:30.139Z,11.10
2022-12-29T15:13:57.388Z,11.10
2022-12-29T15:16:30.784Z,11.10
2022-12-29T15:18:58.381Z,11.10
2022-12-29T15:21:36.737Z,11.10
2022-12-29T15:24:07.143Z,11.10
2022-12-29T15:26:41.993Z,11.00
2022-12-29T15:29:32.301Z,10.90
2022-12-29T15:32:02.797Z,10.90
2022-12-29T15:34:32.924Z,10.90
2022-12-29T15:37:00.638Z,10.80
2022-12-29T15:39:32.584Z,10.80
2022-12-29T15:42:45.938Z,10.70
2022-12-29T15:45:15.038Z,10.70
2022-12-29T15:47:44.423Z,10.70
2022-12-29T15:50:26.019Z,10.70
2022-12-29T15:52:53.082Z,10.70
2022-12-29T15:55:36.568Z,10.70
2022-12-29T15:58:06.980Z,10.70
2022-12-29T16:00:38.632Z,10.60
2022-12-29T16:03:07.606Z,10.50
2022-12-29T16:05:40.260Z,10.50
2022-12-29T16:08:38.054Z,10.40
2022-12-29T16:11:26.980Z,10.40
2022-12-29T16:13:56.485Z,10.30
2022-12-29T16:16:39.798Z,10.30
2022-12-29T16:19:28.374Z,10.10
2022-12-29T16:21:55.667Z,10.10
2022-12-29T16:24:27.206Z,10.10
2022-12-29T16:27:07.464Z,10.10
2022-12-29T16:29:35.774Z,10.00
2022-12-29T16:32:04.235Z,10.00
2022-12-29T16:34:43.123Z,9.90
2022-12-29T16:37:32.461Z,10.00
2022-12-29T16:40:18.367Z,9.90
2022-12-29T16:42:50.946Z,9.90
2022-12-29T16:45:24.544Z,9.80
2022-12-29T16:48:21.948Z,9.80
2022-12-29T16:50:50.602Z,9.70
2022-12-29T16:53:28.263Z,9.60
2022-12-29T16:55:58.586Z,9.70
2022-12-29T16:58:32.748Z,9.60
2022-12-29T17:01:02.089Z,9.60
2022-12-29T17:03:41.268Z,9.60
2022-12-29T17:06:16.039Z,9.50
2022-12-29T17:08:44.706Z,9.50
2022-12-29T17:11:50.152Z,9.50
2022-12-29T17:14:22.579Z,9.50
2022-12-29T17:16:50.132Z,9.50
2022-12-29T17:19:24.911Z,9.50
2022-12-29T17:21:51.897Z,9.50
2022-12-29T17:24:20.677Z,9.50
2022-12-29T17:26:51.189Z,9.50
2022-12-29T17:29:30.057Z,9.50
2022-12-29T17:31:57.027Z,9.50
2022-12-29T17:34:24.395Z,9.50
2022-12-29T17:36:51.514Z,9.50
2022-12-29T17:39:18.440Z,9.50
2022-12-29T17:41:46.162Z,9.50
2022-12-29T17:44:21.044Z,9.50
2022-12-29T17:46:48.682Z,9.30
2022-12-29T17:49:18.130Z,9.30
2022-12-29T17:51:47.464Z,9.20
2022-12-29T17:54:23.528Z,9.30
2022-12-29T17:56:50.588Z,9.30
2022-12-29T17:59:19.054Z,9.30
2022-12-29T18:01:47.977Z,9.30
2022-12-29T18:04:18.364Z,9.30
2022-12-29T18:06:46.655Z,9.30
2022-12-29T18:09:14.889Z,9.30
2022-12-29T18:11:44.065Z,9.40
2022-12-29T18:14:15.540Z,9.40
2022-12-29T18:16:43.298Z,9.40
2022-12-29T18:19:10.377Z,9.40
2022-12-29T18:21:39.345Z,9.30
2022-12-29T18:24:06.754Z,9.30
2022-12-29T18:26:35.880Z,9.30
2022-12-29T18:29:03.073Z,9.30
2022-12-29T18:31:32.901Z,9.30
2022-12-29T18:34:02.221Z,9.30
2022-12-29T18:36:29.225Z,9.30
2022-12-29T18:38:56.220Z,9.30
2022-12-29T18:41:25.322Z,9.30
2022-12-29T18:43:52.750Z,9.30
2022-12-29T18:46:23.174Z,9.30
2022-12-29T18:48:51.563Z,9.30
2022-12-29T18:51:23.613Z,9.30
2022-12-29T18:53:54.390Z,9.30
2022-12-29T18:56:22.871Z,9.30
2022-12-29T18:58:51.137Z,9.20
2022-12-29T19:01:24.446Z,9.20
2022-12-29T19:03:52.241Z,9.20
2022-12-29T19:06:21.097Z,9.10
2022-12-29T19:08:48.281Z,9.10
2022-12-29T19:11:15.287Z,9.00
2022-12-29T19:13:42.310Z,9.10
2022-12-29T19:16:19.578Z,9.10
2022-12-29T19:18:58.261Z,9.10
2022-12-29T19:21:33.643Z,9.10
2022-12-29T19:24:00.522Z,9.10
2022-12-29T19:26:34.527Z,9.10
2022-12-29T19:29:02.028Z,9.10
2022-12-29T19:31:29.443Z,9.10
2022-12-29T19:33:56.693Z,9.10
2022-12-29T19:36:23.697Z,9.10
2022-12-29T19:38:50.614Z,9.10
2022-12-29T19:41:17.701Z,9.20
2022-12-29T19:43:44.618Z,9.20
2022-12-29T19:46:16.615Z,9.20
2022-12-29T19:48:43.731Z,9.20
2022-12-29T19:51:17.118Z,9.20
2022-12-29T19:53:45.598Z,9.20
2022-12-29T19:56:12.875Z,9.10
2022-12-29T19:58:45.208Z,9.10
2022-12-29T20:01:19.791Z,9.20
2022-12-29T20:03:47.664Z,9.20
2022-12-29T20:06:16.202Z,9.20
2022-12-29T20:08:43.861Z,9.20
2022-12-29T20:11:17.213Z,9.20
2022-12-29T20:13:45.175Z,9.20
2022-12-29T20:16:15.268Z,9.30
2022-12-29T20:18:43.263Z,9.20
2022-12-29T20:21:25.215Z,9.20
2022-12-29T20:23:53.669Z,9.20
2022-12-29T20:26:27.256Z,9.20
2022-12-29T20:28:55.186Z,9.20
2022-12-29T20:31:40.006Z,9.20
2022-12-29T20:34:09.004Z,9.20
2022-12-29T20:36:38.771Z,9.20
2022-12-29T20:39:09.159Z,9.20
2022-12-29T20:41:36.593Z,9.30
2022-12-29T20:44:05.425Z,9.30
2022-12-29T20:46:39.417Z,9.40
2022-12-29T20:49:10.534Z,9.30
2022-12-29T20:52:04.619Z,9.30
2022-12-29T20:54:24.650Z,9.20
2022-12-29T20:56:52.424Z,9.20
2022-12-29T20:59:28.454Z,9.30
2022-12-29T21:01:56.585Z,9.30
2022-12-29T21:04:23.693Z,9.30
2022-12-29T21:06:50.630Z,9.20
2022-12-29T21:09:17.698Z,9.20
2022-12-29T21:11:44.669Z,9.10
2022-12-29T21:14:11.732Z,9.20
2022-12-29T21:16:38.945Z,9.20
2022-12-29T21:19:06.078Z,9.10
2022-12-29T21:21:33.287Z,9.10
2022-12-29T21:24:05.698Z,9.10
2022-12-29T21:26:33.997Z,9.00
2022-12-29T21:29:03.483Z,9.00
2022-12-29T21:31:37.037Z,9.00
2022-12-29T21:34:06.066Z,8.90
2022-12-29T21:36:33.566Z,8.90
2022-12-29T21:39:03.489Z,8.90
2022-12-29T21:41:31.152Z,8.80
2022-12-29T21:44:17.130Z,8.80
2022-12-29T21:46:47.030Z,8.80
2022-12-29T21:49:14.099Z,8.80
2022-12-29T21:51:50.187Z,8.80
2022-12-29T21:54:47.243Z,8.80
2022-12-29T21:57:35.813Z,8.80
2022-12-29T22:00:23.658Z,8.70
2022-12-29T22:03:12.884Z,8.70
2022-12-29T22:06:03.890Z,8.70
2022-12-29T22:08:49.603Z,8.70
2022-12-29T22:11:40.634Z,8.70
2022-12-29T22:14:07.716Z,8.70
2022-12-29T22:16:35.018Z,8.70
2022-12-29T22:19:02.394Z,8.70
2022-12-29T22:21:29.361Z,8.70
2022-12-29T22:23:56.327Z,8.60
2022-12-29T22:26:23.298Z,8.60
2022-12-29T22:28:52.234Z,8.60
2022-12-29T22:31:27.467Z,8.50
2022-12-29T22:33:59.785Z,8.50
2022-12-29T22:36:28.343Z,8.50
2022-12-29T22:38:55.648Z,8.60
2022-12-29T22:41:22.828Z,8.60
2022-12-29T22:43:49.665Z,8.60
2022-12-29T22:46:16.825Z,8.50
2022-12-29T22:48:43.929Z,8.50
2022-12-29T22:51:10.952Z,8.50
2022-12-29T22:53:38.117Z,8.50
2022-12-29T22:56:08.767Z,8.50
2022-12-29T22:58:39.223Z,8.40
2022-12-29T23:01:06.253Z,8.40
2022-12-29T23:03:33.425Z,8.40
2022-12-29T23:06:02.694Z,8.30
2022-12-29T23:08:33.495Z,8.20
2022-12-29T23:11:01.737Z,8.20
2022-12-29T23:13:28.995Z,8.10
2022-12-29T23:15:56.210Z,8.00
2022-12-29T23:18:23.320Z,7.90
2022-12-29T23:20:50.684Z,7.90
2022-12-29T23:23:40.552Z,7.90
2022-12-29T23:26:12.000Z,7.80
2022-12-29T23:28:39.127Z,7.80
2022-12-29T23:31:06.241Z,7.70
2022-12-29T23:33:33.318Z,7.70
2022-12-29T23:36:00.250Z,7.70
2022-12-29T23:38:27.394Z,7.60
2022-12-29T23:40:54.451Z,7.60
2022-12-29T23:43:21.491Z,7.60
2022-12-29T23:45:51.044Z,7.60
2022-12-29T23:48:18.900Z,7.60
2022-12-29T23:50:46.046Z,7.60
2022-12-29T23:53:13.522Z,7.60
2022-12-29T23:55:44.229Z,7.50
2022-12-29T23:58:11.539Z,7.60
